Time;durP1;ratioP1;P1;durP2;ratioP2;P2;SDS_P1;SDS_P2;PMS_P1;PMS_P2;Temp;Humidity;BMP_temperature;BMP_pressure;BME280_temperature;BME280_humidity;BME280_pressure;Samples;Min_cycle;Max_cycle;Signal;HPM_P1;HPM_P2
2023/03/17 00:00:45;;;;;;;4.93;3.20;;;6.80;99.90;;;;;;5075672;28;20048;-19
2023/03/17 00:03:23;;;;;;;8.73;5.22;;;6.80;99.90;;;;;;5076308;28;20052;-19
2023/03/17 00:05:50;;;;;;;5.28;2.88;;;6.90;99.90;;;;;;5077014;28;20132;-19
2023/03/17 00:08:28;;;;;;;6.10;3.30;;;6.90;99.90;;;;;;5076923;28;20049;-19
2023/03/17 00:10:54;;;;;;;5.25;3.10;;;6.90;99.90;;;;;;5076531;28;20504;-19
2023/03/17 00:13:20;;;;;;;6.43;2.90;;;7.00;99.90;;;;;;5076258;28;20052;-19
2023/03/17 00:15:51;;;;;;;8.75;3.72;;;7.00;99.90;;;;;;5075278;28;20048;-19
2023/03/17 00:18:19;;;;;;;6.55;2.78;;;7.10;99.90;;;;;;5076527;28;20049;-19
2023/03/17 00:20:46;;;;;;;5.65;2.90;;;7.10;99.90;;;;;;5075035;28;20128;-19
2023/03/17 00:23:19;;;;;;;5.78;2.75;;;7.10;99.90;;;;;;5074949;28;20044;-19
2023/03/17 00:25:46;;;;;;;9.73;3.28;;;7.10;99.90;;;;;;5076681;28;20040;-20
2023/03/17 00:28:23;;;;;;;7.95;4.13;;;7.10;99.90;;;;;;5074785;28;20479;-19
2023/03/17 00:30:53;;;;;;;6.47;3.22;;;7.20;99.90;;;;;;5076599;28;20461;-19
2023/03/17 00:33:25;;;;;;;6.78;2.70;;;7.10;99.90;;;;;;5074305;28;20056;-19
2023/03/17 00:35:51;;;;;;;4.75;3.03;;;7.10;99.90;;;;;;5075919;28;20131;-28
2023/03/17 00:38:23;;;;;;;4.18;2.50;;;7.10;99.90;;;;;;5075791;28;20052;-19
2023/03/17 00:40:49;;;;;;;5.30;3.13;;;7.10;99.90;;;;;;5076292;28;20044;-19
2023/03/17 00:43:16;;;;;;;4.55;2.67;;;7.20;99.90;;;;;;5075696;28;20052;-19
2023/03/17 00:45:43;;;;;;;4.95;3.15;;;7.10;99.90;;;;;;5074465;28;20048;-19
2023/03/17 00:48:19;;;;;;;6.40;3.22;;;7.10;99.90;;;;;;5074641;28;20467;-19
2023/03/17 00:50:47;;;;;;;10.75;2.65;;;7.10;99.90;;;;;;5075554;28;20100;-19
2023/03/17 00:53:16;;;;;;;6.20;3.08;;;7.10;99.90;;;;;;5075831;28;20469;-19
2023/03/17 00:55:43;;;;;;;4.35;2.70;;;7.10;99.90;;;;;;5075466;28;20048;-19
2023/03/17 00:58:27;;;;;;;5.07;3.28;;;7.10;99.90;;;;;;5075975;28;20048;-19
2023/03/17 01:00:54;;;;;;;7.05;3.40;;;7.00;99.90;;;;;;5075884;28;20051;-19
2023/03/17 01:03:21;;;;;;;5.57;3.08;;;7.10;99.90;;;;;;5075895;28;20442;-19
2023/03/17 01:05:48;;;;;;;5.35;3.08;;;7.00;99.90;;;;;;5075869;28;20132;-19
2023/03/17 01:08:15;;;;;;;4.40;3.03;;;7.00;99.90;;;;;;5075203;28;20538;-19
2023/03/17 01:10:41;;;;;;;8.15;2.80;;;7.00;99.90;;;;;;5075137;28;20132;-19
2023/03/17 01:13:10;;;;;;;5.45;2.97;;;7.00;99.90;;;;;;5075186;28;20056;-19
2023/03/17 01:15:40;;;;;;;4.28;2.53;;;7.00;99.90;;;;;;5075104;28;20084;-19
2023/03/17 01:18:05;;;;;;;5.70;2.40;;;7.00;99.90;;;;;;5075607;28;20445;-19
2023/03/17 01:20:33;;;;;;;5.00;2.67;;;7.00;99.90;;;;;;5075210;28;20162;-19
2023/03/17 01:23:00;;;;;;;6.38;2.53;;;7.10;99.90;;;;;;5074986;28;20060;-19
2023/03/17 01:25:27;;;;;;;7.28;2.75;;;7.10;99.90;;;;;;5074869;28;20123;-19
2023/03/17 01:27:58;;;;;;;6.65;2.88;;;7.10;99.90;;;;;;5075096;28;20078;-19
2023/03/17 01:30:33;;;;;;;7.70;3.03;;;7.10;99.90;;;;;;5074803;28;20558;-19
2023/03/17 01:33:00;;;;;;;4.03;2.38;;;7.10;99.90;;;;;;5074691;28;20552;-19
2023/03/17 01:35:28;;;;;;;6.45;3.20;;;7.10;99.90;;;;;;5073729;28;20052;-20
2023/03/17 01:37:56;;;;;;;3.50;2.50;;;7.10;99.90;;;;;;5074620;28;20048;-19
2023/03/17 01:40:34;;;;;;;5.28;2.97;;;7.00;99.90;;;;;;5073557;28;20044;-19
2023/03/17 01:43:15;;;;;;;5.28;2.40;;;7.00;99.90;;;;;;5074566;28;20048;-19
2023/03/17 01:46:19;;;;;;;4.43;2.78;;;7.00;99.90;;;;;;5075107;28;20045;-19
2023/03/17 01:49:04;;;;;;;5.65;2.85;;;6.90;99.90;;;;;;5074099;28;20452;-19
2023/03/17 01:51:42;;;;;;;4.65;2.78;;;6.90;99.90;;;;;;5074410;28;20052;-19
2023/03/17 01:54:16;;;;;;;4.43;2.58;;;7.00;99.90;;;;;;5074650;28;20379;-19
2023/03/17 01:56:45;;;;;;;5.32;3.00;;;7.00;99.90;;;;;;5074537;28;20407;-19
2023/03/17 01:59:16;;;;;;;6.40;2.78;;;7.00;99.90;;;;;;5074859;28;20091;-19
2023/03/17 02:01:46;;;;;;;5.22;2.53;;;7.10;99.90;;;;;;5074193;28;20045;-19
2023/03/17 02:04:12;;;;;;;6.28;2.75;;;7.00;99.90;;;;;;5074982;28;20053;-20
2023/03/17 02:06:38;;;;;;;5.28;3.05;;;7.00;99.90;;;;;;5074125;28;20471;-19
2023/03/17 02:09:04;;;;;;;4.05;2.58;;;7.00;99.90;;;;;;5074042;28;20052;-19
2023/03/17 02:11:32;;;;;;;4.22;2.55;;;7.00;99.90;;;;;;5073993;28;20033;-19
2023/03/17 02:13:57;;;;;;;5.05;3.03;;;7.00;99.90;;;;;;5073043;28;20040;-19
2023/03/17 02:16:23;;;;;;;8.65;3.15;;;6.90;99.90;;;;;;5073806;28;20065;-20
2023/03/17 02:18:49;;;;;;;5.68;2.97;;;6.90;99.90;;;;;;5074199;28;20110;-19
2023/03/17 02:21:37;;;;;;;7.32;2.97;;;6.90;99.90;;;;;;5073910;28;20394;-20
2023/03/17 02:24:09;;;;;;;5.13;2.92;;;6.80;99.90;;;;;;5073882;28;20063;-19
2023/03/17 02:26:36;;;;;;;6.23;2.93;;;6.90;99.90;;;;;;5073903;28;20055;-19
2023/03/17 02:29:02;;;;;;;7.95;3.47;;;6.80;99.90;;;;;;5072633;28;20422;-19
2023/03/17 02:31:29;;;;;;;3.85;2.75;;;6.80;99.90;;;;;;5072621;28;20518;-19
2023/03/17 02:33:55;;;;;;;5.32;3.05;;;6.80;99.90;;;;;;5073633;28;20059;-19
2023/03/17 02:36:20;;;;;;;6.40;3.03;;;6.80;99.90;;;;;;5073704;28;20048;-19
2023/03/17 02:38:46;;;;;;;4.57;2.85;;;6.90;99.90;;;;;;5073974;28;20098;-19
2023/03/17 02:41:12;;;;;;;4.90;2.90;;;6.90;99.90;;;;;;5073624;28;20127;-19
2023/03/17 02:43:40;;;;;;;4.80;2.83;;;6.90;99.90;;;;;;5073643;28;20105;-19
2023/03/17 02:46:06;;;;;;;4.65;2.67;;;6.90;99.90;;;;;;5073872;28;20044;-19
2023/03/17 02:48:35;;;;;;;6.07;3.05;;;6.90;99.90;;;;;;5073904;28;20049;-19
2023/03/17 02:51:01;;;;;;;6.32;2.83;;;6.90;99.90;;;;;;5073632;28;20395;-19
2023/03/17 02:53:27;;;;;;;4.75;2.63;;;6.90;99.90;;;;;;5073254;28;20398;-19
2023/03/17 02:55:53;;;;;;;6.85;3.10;;;6.90;99.90;;;;;;5074085;28;20131;-19
2023/03/17 02:58:18;;;;;;;8.57;3.47;;;6.80;99.90;;;;;;5073521;28;20067;-20
2023/03/17 03:00:44;;;;;;;5.20;2.80;;;6.70;99.90;;;;;;5055689;28;20364;-19
2023/03/17 03:03:10;;;;;;;5.82;2.88;;;6.70;99.90;;;;;;5072770;28;20110;-19
2023/03/17 03:05:36;;;;;;;7.75;2.78;;;6.70;99.90;;;;;;5072305;28;20032;-19
2023/03/17 03:08:02;;;;;;;5.30;2.92;;;6.60;99.90;;;;;;5073431;28;20051;-19
2023/03/17 03:10:28;;;;;;;4.88;2.60;;;6.60;99.90;;;;;;5075744;28;20091;-19
2023/03/17 03:12:54;;;;;;;5.20;3.00;;;6.60;99.90;;;;;;5077437;28;20045;-19
2023/03/17 03:15:20;;;;;;;6.53;3.42;;;6.50;99.90;;;;;;5077449;28;20045;-19
2023/03/17 03:17:46;;;;;;;7.05;2.75;;;6.50;99.90;;;;;;5077443;28;20080;-19
2023/03/17 03:20:12;;;;;;;3.78;2.60;;;6.50;99.90;;;;;;5075983;28;20079;-19
2023/03/17 03:22:38;;;;;;;5.35;3.25;;;6.50;99.90;;;;;;5077239;28;20052;-19
2023/03/17 03:25:04;;;;;;;6.15;2.95;;;6.50;99.90;;;;;;5077244;28;20044;-19
2023/03/17 03:27:31;;;;;;;5.55;3.17;;;6.50;99.90;;;;;;5077977;28;20054;-19
2023/03/17 03:29:57;;;;;;;4.10;2.88;;;6.50;99.90;;;;;;5076834;28;20490;-20
2023/03/17 03:32:22;;;;;;;6.13;3.38;;;6.40;99.90;;;;;;5077427;28;20121;-20
2023/03/17 03:34:48;;;;;;;6.80;2.95;;;6.40;99.90;;;;;;5077845;28;20056;-19
2023/03/17 03:37:14;;;;;;;5.60;3.33;;;6.40;99.90;;;;;;5076969;28;20398;-19
2023/03/17 03:39:40;;;;;;;3.70;2.78;;;6.40;99.90;;;;;;5076925;28;20060;-19
2023/03/17 03:42:06;;;;;;;5.05;2.83;;;6.40;99.90;;;;;;5075902;28;20056;-19
2023/03/17 03:44:32;;;;;;;5.32;3.50;;;6.30;99.90;;;;;;5076852;28;20044;-19
2023/03/17 03:46:57;;;;;;;5.45;3.10;;;6.40;99.90;;;;;;5076766;28;20490;-19
2023/03/17 03:49:23;;;;;;;7.05;3.55;;;6.40;99.90;;;;;;5077040;28;20123;-19
2023/03/17 03:51:49;;;;;;;5.68;2.88;;;6.40;99.90;;;;;;5076698;28;20457;-19
2023/03/17 03:54:15;;;;;;;4.60;3.08;;;6.40;99.90;;;;;;5076642;28;20067;-19
2023/03/17 03:56:41;;;;;;;7.30;3.47;;;6.40;99.90;;;;;;5075446;28;20052;-19
2023/03/17 03:59:07;;;;;;;4.85;2.92;;;6.40;99.90;;;;;;5075381;28;20044;-19
2023/03/17 04:01:33;;;;;;;6.07;3.15;;;6.50;99.90;;;;;;5076436;28;20570;-19
2023/03/17 04:03:58;;;;;;;3.97;2.72;;;6.40;99.90;;;;;;5076800;28;20127;-19
2023/03/17 04:06:24;;;;;;;6.03;3.10;;;6.50;99.90;;;;;;5076559;28;20462;-20
2023/03/17 04:08:50;;;;;;;6.03;2.97;;;6.50;99.90;;;;;;5075739;28;20132;-19
2023/03/17 04:11:16;;;;;;;4.57;2.63;;;6.50;99.90;;;;;;5076242;28;20041;-19
2023/03/17 04:13:42;;;;;;;5.82;3.20;;;6.50;99.90;;;;;;5076320;28;20048;-20
2023/03/17 04:16:08;;;;;;;6.38;3.03;;;6.50;99.90;;;;;;5076507;28;20474;-19
2023/03/17 04:18:34;;;;;;;6.88;3.20;;;6.40;99.90;;;;;;5076259;28;20090;-19
2023/03/17 04:21:00;;;;;;;5.63;3.17;;;6.40;99.90;;;;;;5075843;28;20045;-19
2023/03/17 04:23:27;;;;;;;7.82;4.00;;;6.40;99.90;;;;;;5076168;28;20044;-19
2023/03/17 04:25:53;;;;;;;4.43;2.95;;;6.40;99.90;;;;;;5076139;28;20141;-19
2023/03/17 04:28:19;;;;;;;4.95;2.85;;;6.40;99.90;;;;;;5076069;28;20466;-19
2023/03/17 04:30:45;;;;;;;6.82;3.63;;;6.40;99.90;;;;;;5076247;28;20041;-19
2023/03/17 04:33:12;;;;;;;6.85;3.08;;;6.30;99.90;;;;;;5076175;28;20059;-19
2023/03/17 04:35:38;;;;;;;7.07;3.38;;;6.30;99.90;;;;;;5075883;28;20043;-19
2023/03/17 04:38:04;;;;;;;6.45;3.40;;;6.20;99.90;;;;;;5075879;28;20044;-19
2023/03/17 04:40:29;;;;;;;6.85;2.92;;;6.10;99.90;;;;;;5075715;28;20479;-20
2023/03/17 04:42:55;;;;;;;5.05;3.55;;;6.10;99.90;;;;;;5075529;28;20047;-19
2023/03/17 04:45:21;;;;;;;5.32;3.33;;;6.00;99.90;;;;;;5076263;28;20052;-19
2023/03/17 04:47:47;;;;;;;8.27;3.60;;;5.90;99.90;;;;;;5075469;28;20131;-19
2023/03/17 04:50:14;;;;;;;5.22;2.90;;;5.90;99.90;;;;;;5075257;28;20083;-19
2023/03/17 04:52:40;;;;;;;7.05;2.95;;;5.80;99.90;;;;;;5075608;28;20040;-19
2023/03/17 04:55:10;;;;;;;6.68;3.40;;;5.80;99.90;;;;;;5074422;28;20114;-19
2023/03/17 04:57:36;;;;;;;4.85;2.95;;;5.70;99.90;;;;;;5075809;28;20478;-19
2023/03/17 05:00:04;;;;;;;5.95;3.13;;;5.70;99.90;;;;;;5075499;28;20048;-19
2023/03/17 05:02:30;;;;;;;7.38;3.58;;;5.60;99.90;;;;;;5075325;28;20119;-19
2023/03/17 05:04:56;;;;;;;6.13;3.08;;;5.70;99.90;;;;;;5075362;28;20127;-19
2023/03/17 05:07:21;;;;;;;6.65;3.15;;;5.70;99.90;;;;;;5075168;28;20478;-19
2023/03/17 05:09:47;;;;;;;4.88;2.80;;;5.60;99.90;;;;;;5075180;28;20080;-19
2023/03/17 05:12:13;;;;;;;4.40;2.83;;;5.60;99.90;;;;;;5075279;28;20044;-19
2023/03/17 05:14:39;;;;;;;5.32;3.17;;;5.60;99.90;;;;;;5075173;28;20044;-19
2023/03/17 05:17:06;;;;;;;5.10;2.85;;;5.70;99.90;;;;;;5074798;28;20521;-19
2023/03/17 05:19:31;;;;;;;5.13;3.08;;;5.70;99.90;;;;;;5075046;28;20048;-19
2023/03/17 05:21:58;;;;;;;6.88;3.17;;;5.70;99.90;;;;;;5074958;28;20047;-19
2023/03/17 05:24:24;;;;;;;5.22;2.95;;;5.70;99.90;;;;;;5073805;28;20045;-19
2023/03/17 05:26:49;;;;;;;4.50;2.65;;;5.70;99.90;;;;;;5074915;28;20101;-19
2023/03/17 05:29:15;;;;;;;5.53;2.97;;;5.70;99.90;;;;;;5073647;28;20049;-19
2023/03/17 05:31:42;;;;;;;8.52;3.42;;;5.80;99.90;;;;;;5074014;28;20060;-19
2023/03/17 05:34:07;;;;;;;6.43;3.28;;;5.80;99.90;;;;;;5075063;28;20510;-19
2023/03/17 05:36:33;;;;;;;7.43;2.97;;;5.90;99.90;;;;;;5074720;28;20052;-19
2023/03/17 05:38:59;;;;;;;5.25;2.80;;;5.90;99.90;;;;;;5074640;28;20398;-19
2023/03/17 05:41:25;;;;;;;7.00;2.90;;;5.90;99.90;;;;;;5074528;28;20044;-19
2023/03/17 05:43:51;;;;;;;8.20;3.13;;;6.10;99.90;;;;;;5074536;28;20055;-19
2023/03/17 05:46:17;;;;;;;4.90;2.47;;;6.10;99.90;;;;;;5074515;28;20471;-19
2023/03/17 05:48:43;;;;;;;5.18;2.80;;;6.20;99.90;;;;;;5075287;28;20485;-19
2023/03/17 05:51:09;;;;;;;7.97;2.85;;;6.20;99.90;;;;;;5074007;28;20052;-19
2023/03/17 05:53:35;;;;;;;5.80;3.05;;;6.40;99.90;;;;;;5074375;28;20052;-19
2023/03/17 05:56:01;;;;;;;6.13;2.70;;;6.60;99.90;;;;;;5074325;28;20052;-19
2023/03/17 05:58:27;;;;;;;4.57;2.53;;;6.70;99.90;;;;;;5074251;28;20048;-19
2023/03/17 06:00:53;;;;;;;6.60;3.08;;;6.70;99.90;;;;;;5074149;28;20041;-19
2023/03/17 06:03:20;;;;;;;6.22;2.72;;;6.80;99.90;;;;;;5056278;28;20513;-19
2023/03/17 06:05:45;;;;;;;4.53;2.35;;;6.80;99.90;;;;;;5072915;28;20131;-19
2023/03/17 06:08:11;;;;;;;3.72;2.40;;;6.90;99.90;;;;;;5074897;28;20132;-19
2023/03/17 06:10:37;;;;;;;6.43;2.53;;;6.90;99.90;;;;;;5074538;28;20467;-20
2023/03/17 06:13:03;;;;;;;5.35;3.08;;;6.90;99.90;;;;;;5072742;28;20047;-19
2023/03/17 06:15:29;;;;;;;4.53;2.58;;;6.90;99.90;;;;;;5074032;28;20050;-20
2023/03/17 06:17:55;;;;;;;5.00;2.40;;;7.00;99.90;;;;;;5074762;28;20075;-19
2023/03/17 06:20:21;;;;;;;4.53;2.53;;;7.10;99.90;;;;;;5073850;28;20491;-19
2023/03/17 06:22:47;;;;;;;5.25;3.03;;;7.10;99.90;;;;;;5073898;28;20040;-19
2023/03/17 06:25:14;;;;;;;6.28;2.80;;;7.10;99.90;;;;;;5073916;28;20402;-20
2023/03/17 06:27:40;;;;;;;5.28;2.30;;;7.00;99.90;;;;;;5073821;28;20486;-19
2023/03/17 06:30:07;;;;;;;7.28;2.80;;;7.10;99.90;;;;;;5073802;28;20090;-19
2023/03/17 06:32:34;;;;;;;5.13;2.85;;;7.10;99.90;;;;;;5072509;28;20125;-19
2023/03/17 06:35:00;;;;;;;6.25;2.92;;;7.10;99.90;;;;;;5073777;28;20044;-19
2023/03/17 06:37:27;;;;;;;5.45;2.63;;;7.10;99.90;;;;;;5073710;28;20048;-19
2023/03/17 06:39:53;;;;;;;5.32;2.92;;;7.20;99.90;;;;;;5073618;28;20060;-19
2023/03/17 06:42:19;;;;;;;4.20;2.40;;;7.20;99.90;;;;;;5073318;28;20044;-19
2023/03/17 06:44:44;;;;;;;3.67;2.30;;;7.20;99.90;;;;;;5072671;28;20048;-19
2023/03/17 06:47:10;;;;;;;5.93;2.70;;;7.20;99.90;;;;;;5073598;28;20045;-19
2023/03/17 06:49:36;;;;;;;5.03;2.70;;;7.20;99.90;;;;;;5073594;28;20044;-19
2023/03/17 06:52:02;;;;;;;4.60;2.92;;;7.20;99.90;;;;;;5056013;28;20044;-19
2023/03/17 06:54:28;;;;;;;4.65;2.80;;;7.20;99.90;;;;;;5073773;28;20048;-19
2023/03/17 06:56:54;;;;;;;4.18;2.90;;;7.20;99.90;;;;;;5074100;28;20123;-19
2023/03/17 06:59:21;;;;;;;6.10;3.20;;;7.10;99.90;;;;;;5072583;28;20062;-19
2023/03/17 07:01:48;;;;;;;4.45;2.75;;;7.10;99.90;;;;;;5072800;28;20040;-19
2023/03/17 07:04:15;;;;;;;5.75;2.72;;;7.20;99.90;;;;;;5073764;28;20123;-19
2023/03/17 07:06:41;;;;;;;5.30;2.95;;;7.20;99.90;;;;;;5073770;28;20121;-20
2023/03/17 07:09:08;;;;;;;4.97;2.40;;;7.20;99.90;;;;;;5073492;28;20075;-19
2023/03/17 07:11:34;;;;;;;5.43;2.95;;;7.20;99.90;;;;;;5072981;28;20455;-19
2023/03/17 07:14:01;;;;;;;5.45;2.83;;;7.20;99.90;;;;;;5073367;28;20095;-19
2023/03/17 07:16:27;;;;;;;4.88;2.88;;;7.20;99.90;;;;;;5073426;28;20049;-19
2023/03/17 07:18:54;;;;;;;4.78;3.00;;;7.10;99.90;;;;;;5073335;28;20049;-19
2023/03/17 07:21:20;;;;;;;6.78;2.95;;;7.20;99.90;;;;;;5073230;28;20482;-19
2023/03/17 07:23:45;;;;;;;6.80;2.95;;;7.30;99.90;;;;;;5073270;28;20487;-19
2023/03/17 07:26:11;;;;;;;4.55;2.83;;;7.40;99.90;;;;;;5055446;28;20087;-20
2023/03/17 07:28:37;;;;;;;6.22;3.08;;;7.50;99.90;;;;;;5073233;28;20127;-19
2023/03/17 07:31:06;;;;;;;5.38;3.70;;;7.70;99.90;;;;;;5071971;28;20042;-20
2023/03/17 07:33:32;;;;;;;4.57;2.53;;;7.80;99.90;;;;;;5073290;28;20079;-19
2023/03/17 07:35:58;;;;;;;9.68;3.35;;;8.00;99.90;;;;;;5072135;28;20057;-20
2023/03/17 07:38:24;;;;;;;3.50;2.70;;;8.10;99.90;;;;;;5073100;28;20040;-19
2023/03/17 07:40:51;;;;;;;3.60;2.65;;;8.20;99.90;;;;;;5073854;28;20037;-19
2023/03/17 07:43:17;;;;;;;4.85;2.88;;;8.30;99.90;;;;;;5072086;28;20063;-19
2023/03/17 07:45:44;;;;;;;4.82;2.78;;;8.50;99.90;;;;;;5073052;28;20059;-20
2023/03/17 07:48:10;;;;;;;4.50;2.80;;;8.70;99.90;;;;;;5073628;28;20040;-20
2023/03/17 07:50:36;;;;;;;5.78;3.65;;;9.00;99.90;;;;;;5073018;28;20040;-19
2023/03/17 07:53:03;;;;;;;7.03;2.75;;;9.20;99.90;;;;;;5073011;28;20056;-19
2023/03/17 07:55:30;;;;;;;4.95;2.58;;;9.50;99.90;;;;;;5074521;28;20057;-19
2023/03/17 07:57:56;;;;;;;5.80;3.08;;;9.70;99.90;;;;;;5076609;28;20040;-20
2023/03/17 08:00:22;;;;;;;4.75;3.45;;;9.70;99.90;;;;;;5075520;28;20048;-19
2023/03/17 08:02:50;;;;;;;8.02;2.97;;;9.70;99.90;;;;;;5075545;28;20045;-19
2023/03/17 08:05:16;;;;;;;5.22;2.70;;;9.70;99.90;;;;;;5076479;28;20044;-19
2023/03/17 08:07:42;;;;;;;5.95;2.65;;;9.70;99.90;;;;;;5076419;28;20055;-20
2023/03/17 08:10:11;;;;;;;6.07;2.65;;;9.80;99.90;;;;;;5077162;28;20044;-20
2023/03/17 08:12:38;;;;;;;6.40;2.90;;;9.80;99.90;;;;;;5075361;28;20478;-20
2023/03/17 08:15:05;;;;;;;6.10;3.20;;;9.80;99.90;;;;;;5077129;28;20067;-19
2023/03/17 08:17:31;;;;;;;5.40;2.60;;;9.90;99.90;;;;;;5076312;28;20055;-19
2023/03/17 08:19:57;;;;;;;4.75;2.45;;;9.90;99.90;;;;;;5076253;28;20048;-19
2023/03/17 08:22:23;;;;;;;6.38;2.50;;;9.90;99.90;;;;;;5076077;28;20109;-20
2023/03/17 08:24:50;;;;;;;5.10;3.00;;;10.00;99.90;;;;;;5076117;28;20131;-20
2023/03/17 08:27:17;;;;;;;5.18;2.42;;;9.90;99.90;;;;;;5076092;28;20045;-19
2023/03/17 08:29:44;;;;;;;8.45;3.13;;;9.90;99.90;;;;;;5075727;28;20547;-20
2023/03/17 08:32:10;;;;;;;6.22;2.60;;;9.90;99.90;;;;;;5075680;28;20057;-19
2023/03/17 08:34:36;;;;;;;3.45;2.55;;;9.90;99.90;;;;;;5076774;28;20094;-20
2023/03/17 08:37:02;;;;;;;6.93;2.65;;;9.80;99.90;;;;;;5075890;28;20534;-20
2023/03/17 08:39:29;;;;;;;4.35;2.30;;;9.70;99.90;;;;;;5075855;28;20083;-19
2023/03/17 08:41:55;;;;;;;11.18;3.58;;;9.70;99.90;;;;;;5074638;28;20493;-20
2023/03/17 08:44:22;;;;;;;6.40;2.92;;;9.70;99.90;;;;;;5075823;28;20106;-19
2023/03/17 08:46:51;;;;;;;5.45;2.72;;;9.70;99.90;;;;;;5075999;28;20375;-20
2023/03/17 08:49:17;;;;;;;3.95;2.50;;;9.70;99.90;;;;;;5075015;28;20048;-20
2023/03/17 08:51:43;;;;;;;5.50;2.35;;;9.70;99.90;;;;;;5076192;28;20041;-19
2023/03/17 08:54:10;;;;;;;7.15;2.33;;;9.80;99.90;;;;;;5075859;28;20068;-19
2023/03/17 08:56:38;;;;;;;3.95;2.33;;;9.70;99.90;;;;;;5075582;28;20049;-20
2023/03/17 08:59:05;;;;;;;5.65;2.75;;;9.80;99.90;;;;;;5075479;28;20509;-19
2023/03/17 09:01:31;;;;;;;5.32;2.10;;;9.80;99.90;;;;;;5075937;28;20080;-20
2023/03/17 09:03:57;;;;;;;3.85;2.35;;;9.90;99.90;;;;;;5075955;28;20372;-20
2023/03/17 09:06:24;;;;;;;6.45;2.38;;;10.00;99.90;;;;;;5074192;28;20059;-19
2023/03/17 09:08:54;;;;;;;3.97;2.50;;;10.10;99.90;;;;;;5074819;28;20405;-19
2023/03/17 09:11:23;;;;;;;5.25;2.15;;;10.30;99.90;;;;;;5074312;28;20044;-19
2023/03/17 09:13:49;;;;;;;7.95;2.50;;;10.40;99.90;;;;;;5075100;28;20117;-19
2023/03/17 09:16:16;;;;;;;5.82;3.10;;;10.50;99.90;;;;;;5075133;28;20080;-19
2023/03/17 09:18:44;;;;;;;3.70;2.28;;;10.60;99.90;;;;;;5075066;28;20044;-19
2023/03/17 09:21:12;;;;;;;4.75;2.30;;;10.90;99.90;;;;;;5074762;28;20379;-20
2023/03/17 09:23:38;;;;;;;4.32;2.63;;;11.10;99.90;;;;;;5075040;28;20449;-19
2023/03/17 09:26:04;;;;;;;4.05;1.88;;;11.60;99.90;;;;;;5074909;28;20097;-20
2023/03/17 09:28:29;;;;;;;3.50;2.10;;;12.10;99.90;;;;;;5074891;28;20049;-20
2023/03/17 09:31:04;;;;;;;6.38;2.22;;;12.00;99.90;;;;;;5074824;28;20041;-20
2023/03/17 09:33:30;;;;;;;3.83;2.40;;;12.00;99.90;;;;;;5073261;28;20060;-20
2023/03/17 09:35:56;;;;;;;2.72;1.88;;;12.80;99.90;;;;;;5074770;28;20040;-20
2023/03/17 09:38:24;;;;;;;4.30;2.33;;;13.10;99.90;;;;;;5074674;28;20049;-20
2023/03/17 09:41:15;;;;;;;3.03;2.00;;;13.10;99.90;;;;;;5074451;28;20090;-20
2023/03/17 09:43:58;;;;;;;3.55;2.00;;;13.10;99.90;;;;;;5074846;28;20497;-20
2023/03/17 09:47:03;;;;;;;4.85;2.58;;;13.20;99.90;;;;;;5074623;28;20049;-20
2023/03/17 09:49:55;;;;;;;6.60;2.30;;;13.20;99.90;;;;;;5075002;28;20498;-19
2023/03/17 09:52:30;;;;;;;4.15;2.50;;;13.30;99.90;;;;;;5074762;28;20458;-20
2023/03/17 09:54:56;;;;;;;5.72;3.35;;;13.20;99.90;;;;;;5075217;28;20083;-20
2023/03/17 09:57:50;;;;;;;8.07;3.78;;;13.60;99.90;;;;;;5074368;28;20135;-20
2023/03/17 10:00:21;;;;;;;9.60;5.53;;;14.10;99.90;;;;;;5074289;28;20110;-20
2023/03/17 10:02:47;;;;;;;5.47;3.72;;;14.10;99.90;;;;;;5073865;28;20123;-20
2023/03/17 10:05:20;;;;;;;5.03;3.22;;;14.70;99.90;;;;;;5072936;28;20473;-20
2023/03/17 10:08:03;;;;;;;5.20;3.38;;;14.70;99.90;;;;;;5074131;28;20509;-19
2023/03/17 10:10:45;;;;;;;4.63;2.70;;;14.10;99.90;;;;;;5074501;28;20097;-20
2023/03/17 10:13:30;;;;;;;10.45;3.70;;;14.20;99.90;;;;;;5074125;28;20055;-20
2023/03/17 10:16:19;;;;;;;6.82;2.63;;;14.40;99.90;;;;;;5074822;28;20048;-20
2023/03/17 10:18:59;;;;;;;4.95;3.03;;;14.30;99.90;;;;;;5073757;28;20052;-19
2023/03/17 10:21:30;;;;;;;6.40;3.08;;;14.20;99.90;;;;;;5073965;28;20123;-19
2023/03/17 10:23:57;;;;;;;4.82;2.95;;;14.70;99.90;;;;;;5074268;28;20538;-19
2023/03/17 10:26:26;;;;;;;5.50;2.75;;;15.00;99.90;;;;;;5074157;28;20049;-19
2023/03/17 10:28:52;;;;;;;6.65;3.03;;;14.90;99.90;;;;;;5074163;28;20071;-19
2023/03/17 10:31:34;;;;;;;8.75;6.32;;;15.10;99.90;;;;;;5072892;28;20059;-19
2023/03/17 10:34:22;;;;;;;4.80;3.00;;;15.60;99.90;;;;;;5074704;28;20048;-19
2023/03/17 10:36:53;;;;;;;6.05;3.25;;;15.70;99.90;;;;;;5073640;28;20060;-19
2023/03/17 10:39:22;;;;;;;5.70;2.78;;;15.80;99.90;;;;;;5073833;28;20114;-19
2023/03/17 10:41:58;;;;;;;4.50;2.78;;;16.10;99.90;;;;;;5073660;28;20084;-19
2023/03/17 10:44:42;;;;;;;7.47;3.13;;;16.30;99.90;;;;;;5073742;28;20131;-19
2023/03/17 10:47:36;;;;;;;6.05;3.03;;;16.00;99.90;;;;;;5074197;28;20048;-19
2023/03/17 10:50:24;;;;;;;7.38;3.45;;;16.30;99.90;;;;;;5073954;28;20041;-19
2023/03/17 10:53:03;;;;;;;5.05;3.10;;;16.30;99.90;;;;;;5073445;28;20087;-19
2023/03/17 10:55:32;;;;;;;5.10;3.30;;;16.40;99.90;;;;;;5073616;28;20048;-19
2023/03/17 10:58:12;;;;;;;9.45;3.72;;;16.30;99.90;;;;;;5074374;28;20079;-19
2023/03/17 11:00:45;;;;;;;5.68;2.85;;;16.10;99.90;;;;;;5074333;28;20044;-19
2023/03/17 11:03:21;;;;;;;5.07;3.38;;;16.10;99.90;;;;;;5073606;28;20121;-19
2023/03/17 11:06:11;;;;;;;5.85;3.35;;;16.20;99.90;;;;;;5073465;28;20471;-19
2023/03/17 11:08:47;;;;;;;7.07;3.47;;;16.00;99.90;;;;;;5074078;28;20048;-19
2023/03/17 11:11:32;;;;;;;5.20;3.50;;;15.70;99.90;;;;;;5073054;28;20372;-19
2023/03/17 11:14:12;;;;;;;5.80;3.15;;;16.00;99.90;;;;;;5073416;28;20128;-19
2023/03/17 11:17:00;;;;;;;7.10;3.80;;;16.40;99.90;;;;;;5073413;28;20045;-19
2023/03/17 11:19:34;;;;;;;5.60;3.38;;;16.50;99.90;;;;;;5072156;28;20044;-19
2023/03/17 11:22:24;;;;;;;4.65;3.60;;;16.50;99.90;;;;;;5072962;28;20506;-19
2023/03/17 11:25:12;;;;;;;6.32;3.40;;;16.20;99.90;;;;;;5073288;28;20049;-19
2023/03/17 11:27:54;;;;;;;7.25;3.55;;;16.10;99.90;;;;;;5074132;28;20094;-19
2023/03/17 11:30:30;;;;;;;6.97;3.78;;;16.00;99.90;;;;;;5075478;28;20052;-19
2023/03/17 11:33:41;;;;;;;6.32;3.65;;;16.40;99.90;;;;;;5076768;28;20131;-19
2023/03/17 11:36:25;;;;;;;6.03;3.97;;;16.90;99.90;;;;;;5077079;28;20482;-19
2023/03/17 11:38:57;;;;;;;6.68;4.00;;;17.10;99.90;;;;;;5077051;28;20109;-19
2023/03/17 11:41:40;;;;;;;7.35;3.47;;;17.40;99.90;;;;;;5076915;28;20044;-19
2023/03/17 11:44:25;;;;;;;6.03;3.70;;;17.60;99.90;;;;;;5059620;28;20064;-19
2023/03/17 11:47:19;;;;;;;7.57;3.80;;;17.90;99.90;;;;;;5076217;28;20053;-19
2023/03/17 11:49:54;;;;;;;7.57;4.22;;;17.40;99.90;;;;;;5075830;28;20044;-19
2023/03/17 11:52:33;;;;;;;6.55;4.03;;;17.60;99.90;;;;;;5076759;28;20044;-19
2023/03/17 11:55:30;;;;;;;5.63;3.63;;;17.80;99.90;;;;;;5076056;28;20055;-19
2023/03/17 11:58:09;;;;;;;4.82;3.38;;;18.00;99.90;;;;;;5076675;28;20059;-19
2023/03/17 12:00:49;;;;;;;7.03;3.65;;;17.90;99.90;;;;;;5076581;28;20045;-19
2023/03/17 12:03:24;;;;;;;7.55;3.78;;;17.90;99.90;;;;;;5077172;28;20048;-19
2023/03/17 12:05:54;;;;;;;7.30;4.38;;;18.20;99.90;;;;;;5076572;28;20048;-19
2023/03/17 12:08:44;;;;;;;6.43;3.47;;;18.00;99.90;;;;;;5076532;28;20048;-19
2023/03/17 12:11:19;;;;;;;5.68;3.55;;;18.00;99.90;;;;;;5059178;28;20056;-19
2023/03/17 12:14:28;;;;;;;6.53;3.10;;;17.70;99.90;;;;;;5076392;28;20052;-19
2023/03/17 12:17:12;;;;;;;8.80;4.40;;;17.60;99.90;;;;;;5075658;28;20402;-19
2023/03/17 12:20:05;;;;;;;6.60;4.07;;;17.60;99.90;;;;;;5076829;28;20059;-19
2023/03/17 12:22:39;;;;;;;7.68;3.78;;;17.80;99.90;;;;;;5075872;28;20051;-20
2023/03/17 12:25:17;;;;;;;6.00;4.45;;;18.00;99.90;;;;;;5076732;28;20040;-19
2023/03/17 12:28:10;;;;;;;7.90;4.70;;;17.60;99.90;;;;;;5075279;28;20048;-19
2023/03/17 12:30:53;;;;;;;9.18;4.78;;;17.50;99.90;;;;;;5076024;28;20040;-19
2023/03/17 12:33:46;;;;;;;8.68;4.63;;;17.40;99.90;;;;;;5076227;28;20521;-19
2023/03/17 12:36:15;;;;;;;;;;;17.30;99.90;;;;;;5077038;28;20048;-20
2023/03/17 12:39:00;;;;;;;9.02;5.40;;;17.40;99.90;;;;;;5076364;28;20024;-20
2023/03/17 12:41:32;;;;;;;10.63;4.90;;;17.30;99.90;;;;;;5075742;28;20067;-19
2023/03/17 12:44:35;;;;;;;6.20;4.80;;;17.20;99.90;;;;;;5075937;28;20074;-20
2023/03/17 12:47:43;;;;;;;8.30;4.97;;;17.30;99.90;;;;;;5076163;28;20131;-19
2023/03/17 12:50:51;;;;;;;7.07;4.97;;;17.40;99.90;;;;;;5074383;28;20092;-22
2023/03/17 12:53:28;;;;;;;7.80;4.35;;;17.50;99.90;;;;;;5064387;28;20067;-20
2023/03/17 12:56:07;;;;;;;7.43;4.82;;;17.00;99.90;;;;;;5071687;28;20044;-19
2023/03/17 12:58:44;;;;;;;9.45;4.95;;;17.00;99.90;;;;;;5067376;28;20115;-19
2023/03/17 13:01:47;;;;;;;9.93;5.25;;;16.70;99.90;;;;;;5075567;28;20076;-20
2023/03/17 13:04:36;;;;;;;8.55;5.10;;;16.40;99.90;;;;;;5073999;28;20071;-20
2023/03/17 13:07:08;;;;;;;10.88;5.50;;;16.30;99.90;;;;;;5055358;28;20119;-20
2023/03/17 13:09:47;;;;;;;9.00;5.50;;;16.10;99.90;;;;;;5070395;28;20063;-20
2023/03/17 13:12:54;;;;;;;6.97;5.07;;;16.00;99.90;;;;;;5059181;28;20076;-20